Airfield :
LOGIN :

Register | Disclaimer

   EN    FR    IT 

 










Legend :    VFR   Marginal VFR   IFR   Intensive IFR   Very Intensive IFR
Visi :
Ceiling :
>= 8 km
>= 3000ft
5 to 8 km
1000 to 3000 ft
1500m to 5 km
500 to 1000 ft
800 to 1500m
200 to 500 ft
< 800m
< 200 ft
Symbols :   Thunderstorms  Fog  Heavy snow  Heavy precipitations  Wind > 20 kt
SIGMETs :     Misc.  Thunderstorms  Icing  Turbulence  Mountain Waves  Volcanic Ashes






- Airport Elevation : 11 ft
- IATA code : SXL


EISG - Sligo

CURRENT METAR :
  • 230830Z 34015KT 9999 FEW028 BKN046 OVC050 10/// Q1019

EXPIRED METARs :
  • 230800Z 33016KT 9999 OVC049 10/// Q1019
  • 230730Z 33017KT 9999 FEW037 OVC049 10/// Q1019
  • 230700Z 34016KT 9999 BKN036 OVC046 10/// Q1018
  • 230630Z 33017G27KT 9999 FEW028 OVC042 10/// Q1018

TAF TAF EISG
Valid from the 23 at 09:00 until the 23 at 18:00 UTC


230800Z 2309/2318 32015KT 9999 FEW030 BKN040
TEMPO 2309/2318 35018G30KT



MET'MAP, your aeronautical weather chart ! - Copyright ORBIFLY December 2007 - Disclaimer

ORBIFLY MET'MAP TEAM :

Programming & Development : Alexandra Zaïnal
Original concept : Baudouin d'Aumeries
Technical & hardware support : Manuel Goepfert
Assistance : Marc-Olivier Méhu




SOURCES & CREDITS :

   NOAA